Terminal Aerodrome Forecast
Issued by NWS

Home | Current Version | Previous Version | Text Only | Print | Product List | Glossary On
Versions: 1 2 3 4 5 6 7 8 9 10 11 12 13 14
571
FTUS46 KPDT 191120
TAFBDN
TAF
KBDN 191120Z 1912/2012 17010KT P6SM BKN250
     FM192100 20010KT P6SM OVC250
     FM200300 20012KT P6SM OVC100
     FM200600 20015G25KT P6SM -RA OVC050=

USA.gov is the U.S. government's official web portal to all federal, state and local government web resources and services.